Hizir — 9HA3348 — position and weather

sailwx.info

Track history (hours):
 
Tides and Currents Weather Stations Pressure Air Temp Water Temp Dewpoint Dewpoint Depression Visibility Wind Speed Wind Dir Waves Ship Positions

Hizir

Last reported at 2018-May-25 14:32 UTC. Time now 2018-May-25 18:35 UTC.
Position N 46°07' E 030°51'.

Length 130 m; draft 4.8 m.

Type: Cargo ship. MMSI: 229459000.

Date/timePositionNaut miles runAvg speedWind from/ knotsBaromVisibWave heightAir tempDewpointWater temp
2018-May-25 14:32N 46°07' E 030°51'0 9.3
2018-May-25 14:31N 46°08' E 030°51'5 9.2
2018-May-25 13:58N 46°13' E 030°52'4 9.3
2018-May-25 13:30N 46°17' E 030°53'5 9.5
2018-May-25 13:00N 46°20' E 030°58'4 8.0
2018-May-25 12:30N 46°23' E 031°02'0 0.0
2018-May-25 03:28N 46°24' E 031°02'0 0.0
2018-May-25 02:55N 46°24' E 031°02'0 0.0
2018-May-25 02:13N 46°24' E 031°02'0 0.0
2018-May-25 01:58N 46°24' E 031°02'0 0.1
2018-May-25 01:28N 46°24' E 031°02'0 0.0
2018-May-24 21:10N 46°24' E 031°02'0 0.0
2018-May-24 20:58N 46°24' E 031°02'0 0.0
2018-May-24 19:40N 46°24' E 031°02'0 0.0
2018-May-24 19:22N 46°24' E 031°02'0 0.0
2018-May-24 18:55N 46°24' E 031°02'0 0.0
2018-May-24 18:04N 46°24' E 031°02'0 0.0
2018-May-23 15:34N 46°24' E 031°02'0 0.0
2018-May-23 05:16N 46°24' E 031°02'0 0.0
2018-May-23 04:58N 46°24' E 031°02'0 0.0
2018-May-23 02:46N 46°24' E 031°02'0 0.0
2018-May-23 02:28N 46°24' E 031°02'0 0.0
2018-May-23 01:58N 46°24' E 031°02'0 0.0
2018-May-21 22:20N 46°24' E 031°02'0 0.0
2018-May-21 21:47N 46°24' E 031°02'0 0.0
2018-May-21 21:26N 46°24' E 031°02'0 0.0
2018-May-21 18:02N 46°24' E 031°02'0 0.1
2018-May-21 17:50N 46°24' E 031°02'0 0.0
2018-May-21 17:08N 46°24' E 031°02'0 0.0
2018-May-21 16:56N 46°24' E 031°02'0 0.0
2018-May-21 16:23N 46°24' E 031°02'0 0.0
2018-May-21 15:50N 46°24' E 031°02'0 0.0
2018-May-21 14:08N 46°24' E 031°02'0 0.0
2018-May-21 04:26N 46°24' E 031°02'0 0.0
2018-May-21 03:11N 46°24' E 031°02'0 0.0
2018-May-21 02:59N 46°24' E 031°02'0 0.0
2018-May-21 02:26N 46°24' E 031°02'0 0.0
2018-May-19 20:50N 46°24' E 031°02'0 0.0
2018-May-19 20:27N 46°24' E 031°02'0 0.0
2018-May-19 19:06N 46°24' E 031°02'0 0.0
2018-May-19 13:47N 46°24' E 031°02'0 0.0
2018-May-19 03:29N 46°24' E 031°02'0 0.0
2018-May-19 02:50N 46°24' E 031°02'0 0.0
2018-May-19 01:47N 46°24' E 031°02'0 0.0
2018-May-19 01:26N 46°24' E 031°02'0 0.0
2018-May-19 00:59N 46°24' E 031°02'0 0.1
2018-May-19 00:29N 46°24' E 031°02'0 0.1
2018-May-18 23:59N 46°24' E 031°02'0 0.0
2018-May-18 23:23N 46°24' E 031°02'0 0.0
2018-May-18 22:59N 46°24' E 031°02'0 0.0
2018-May-18 22:29N 46°24' E 031°02'0 0.0
2018-May-17 18:17N 46°24' E 031°02'0 0.0
2018-May-17 17:47N 46°24' E 031°02'0 0.0
2018-May-17 06:35N 46°24' E 031°02'0 0.0
2018-May-17 05:08N 46°24' E 031°02'0 0.0
2018-May-17 04:59N 46°24' E 031°02'0 0.0
2018-May-17 04:23N 46°24' E 031°02'0 0.0
2018-May-17 03:59N 46°24' E 031°02'0 0.0
2018-May-17 03:05N 46°24' E 031°02'0 0.0
2018-May-17 01:14N 46°24' E 031°02'0 0.0
2018-May-16 17:59N 46°24' E 031°02'0 0.0
2018-May-16 17:23N 46°24' E 031°02'0 0.0
2018-May-16 16:41N 46°24' E 031°02'0 0.0
2018-May-16 14:47N 46°24' E 031°02'0 0.0
2018-May-16 14:29N 46°24' E 031°02'0 0.0
2018-May-15 20:47N 46°24' E 031°02'  
Track history (hours):
 
Tides and Currents Weather Stations Pressure Air Temp Water Temp Dewpoint Dewpoint Depression Visibility Wind Speed Wind Dir Waves Ship Positions

Hizir

Last reported at 2018-May-25 14:32 UTC. Time now 2018-May-25 18:35 UTC.
Position N 46°07' E 030°51'.

Length 130 m; draft 4.8 m.

Type: Cargo ship. MMSI: 229459000.

Date/timePositionNaut miles runAvg speedWind from/ knotsBaromVisibWave heightAir tempDewpointWater temp
2018-May-25 14:32N 46°07' E 030°51'0 9.3
2018-May-25 14:31N 46°08' E 030°51'5 9.2
2018-May-25 13:58N 46°13' E 030°52'4 9.3
2018-May-25 13:30N 46°17' E 030°53'5 9.5
2018-May-25 13:00N 46°20' E 030°58'4 8.0
2018-May-25 12:30N 46°23' E 031°02'0 0.0
2018-May-25 03:28N 46°24' E 031°02'0 0.0
2018-May-25 02:55N 46°24' E 031°02'0 0.0
2018-May-25 02:13N 46°24' E 031°02'0 0.0
2018-May-25 01:58N 46°24' E 031°02'0 0.1
2018-May-25 01:28N 46°24' E 031°02'0 0.0
2018-May-24 21:10N 46°24' E 031°02'0 0.0
2018-May-24 20:58N 46°24' E 031°02'0 0.0
2018-May-24 19:40N 46°24' E 031°02'0 0.0
2018-May-24 19:22N 46°24' E 031°02'0 0.0
2018-May-24 18:55N 46°24' E 031°02'0 0.0
2018-May-24 18:04N 46°24' E 031°02'0 0.0
2018-May-23 15:34N 46°24' E 031°02'0 0.0
2018-May-23 05:16N 46°24' E 031°02'0 0.0
2018-May-23 04:58N 46°24' E 031°02'0 0.0
2018-May-23 02:46N 46°24' E 031°02'0 0.0
2018-May-23 02:28N 46°24' E 031°02'0 0.0
2018-May-23 01:58N 46°24' E 031°02'0 0.0
2018-May-21 22:20N 46°24' E 031°02'0 0.0
2018-May-21 21:47N 46°24' E 031°02'0 0.0
2018-May-21 21:26N 46°24' E 031°02'0 0.0
2018-May-21 18:02N 46°24' E 031°02'0 0.1
2018-May-21 17:50N 46°24' E 031°02'0 0.0
2018-May-21 17:08N 46°24' E 031°02'0 0.0
2018-May-21 16:56N 46°24' E 031°02'0 0.0
2018-May-21 16:23N 46°24' E 031°02'0 0.0
2018-May-21 15:50N 46°24' E 031°02'0 0.0
2018-May-21 14:08N 46°24' E 031°02'0 0.0
2018-May-21 04:26N 46°24' E 031°02'0 0.0
2018-May-21 03:11N 46°24' E 031°02'0 0.0
2018-May-21 02:59N 46°24' E 031°02'0 0.0
2018-May-21 02:26N 46°24' E 031°02'0 0.0
2018-May-19 20:50N 46°24' E 031°02'0 0.0
2018-May-19 20:27N 46°24' E 031°02'0 0.0
2018-May-19 19:06N 46°24' E 031°02'0 0.0
2018-May-19 13:47N 46°24' E 031°02'0 0.0
2018-May-19 03:29N 46°24' E 031°02'0 0.0
2018-May-19 02:50N 46°24' E 031°02'0 0.0
2018-May-19 01:47N 46°24' E 031°02'0 0.0
2018-May-19 01:26N 46°24' E 031°02'0 0.0
2018-May-19 00:59N 46°24' E 031°02'0 0.1
2018-May-19 00:29N 46°24' E 031°02'0 0.1
2018-May-18 23:59N 46°24' E 031°02'0 0.0
2018-May-18 23:23N 46°24' E 031°02'0 0.0
2018-May-18 22:59N 46°24' E 031°02'0 0.0
2018-May-18 22:29N 46°24' E 031°02'0 0.0
2018-May-17 18:17N 46°24' E 031°02'0 0.0
2018-May-17 17:47N 46°24' E 031°02'0 0.0
2018-May-17 06:35N 46°24' E 031°02'0 0.0
2018-May-17 05:08N 46°24' E 031°02'0 0.0
2018-May-17 04:59N 46°24' E 031°02'0 0.0
2018-May-17 04:23N 46°24' E 031°02'0 0.0
2018-May-17 03:59N 46°24' E 031°02'0 0.0
2018-May-17 03:05N 46°24' E 031°02'0 0.0
2018-May-17 01:14N 46°24' E 031°02'0 0.0
2018-May-16 17:59N 46°24' E 031°02'0 0.0
2018-May-16 17:23N 46°24' E 031°02'0 0.0
2018-May-16 16:41N 46°24' E 031°02'0 0.0
2018-May-16 14:47N 46°24' E 031°02'0 0.0
2018-May-16 14:29N 46°24' E 031°02'0 0.0
2018-May-15 20:47N 46°24' E 031°02'  

Dump ship's entire track history